createdAt,value
2023-05-04T00:03:31.242Z,52.18
2023-05-04T00:08:33.802Z,52.60
2023-05-04T00:13:36.425Z,52.81
2023-05-04T00:18:39.566Z,52.88
2023-05-04T00:23:42.349Z,53.41
2023-05-04T00:28:44.968Z,53.75
2023-05-04T00:33:47.903Z,54.31
2023-05-04T00:38:52.571Z,54.39
2023-05-04T00:43:55.049Z,55.00
2023-05-04T00:48:59.721Z,55.09
2023-05-04T00:54:02.422Z,55.29
2023-05-04T00:59:05.001Z,55.67
2023-05-04T01:04:07.796Z,55.80
2023-05-04T01:09:25.674Z,55.81
2023-05-04T01:14:30.407Z,56.54
2023-05-04T01:19:33.787Z,56.46
2023-05-04T01:24:38.849Z,56.58
2023-05-04T01:30:00.476Z,56.62
2023-05-04T01:35:03.681Z,56.79
2023-05-04T01:40:07.185Z,56.81
2023-05-04T01:45:10.286Z,56.76
2023-05-04T01:50:13.861Z,56.81
2023-05-04T01:55:16.563Z,56.79
2023-05-04T02:00:19.384Z,57.04
2023-05-04T02:05:22.047Z,57.07
2023-05-04T02:10:24.610Z,57.01
2023-05-04T02:15:27.273Z,56.77
2023-05-04T02:20:31.210Z,56.00
2023-05-04T02:25:33.698Z,55.18
2023-05-04T02:30:36.342Z,54.36
2023-05-04T02:35:39.056Z,53.96
2023-05-04T02:40:41.835Z,53.21
2023-05-04T02:45:44.445Z,52.32
2023-05-04T02:50:47.070Z,51.44
2023-05-04T02:55:49.921Z,50.17
2023-05-04T03:00:56.450Z,49.42
2023-05-04T03:05:58.986Z,48.65
2023-05-04T03:11:01.562Z,47.43
2023-05-04T03:16:05.956Z,46.45
2023-05-04T03:21:08.831Z,45.64
2023-05-04T03:26:11.903Z,44.42
2023-05-04T03:31:14.515Z,43.94
2023-05-04T03:36:17.662Z,43.57
2023-05-04T03:41:21.207Z,42.48
2023-05-04T03:46:23.825Z,41.47
2023-05-04T03:51:28.087Z,41.03
2023-05-04T03:56:30.836Z,39.93
2023-05-04T04:01:34.096Z,39.28
2023-05-04T04:06:38.092Z,38.03
2023-05-04T04:11:41.073Z,37.17
2023-05-04T04:16:43.792Z,37.56
2023-05-04T04:21:46.428Z,37.19
2023-05-04T04:26:48.916Z,36.26
2023-05-04T04:31:51.981Z,35.18
2023-05-04T04:36:54.690Z,35.11
2023-05-04T04:41:57.323Z,34.78
2023-05-04T04:46:59.888Z,33.32
2023-05-04T04:52:03.143Z,32.63
2023-05-04T04:57:06.345Z,32.70
2023-05-04T05:02:09.949Z,32.36
2023-05-04T05:07:12.529Z,32.70
2023-05-04T05:12:15.018Z,32.15
2023-05-04T05:17:18.428Z,31.42
2023-05-04T05:22:21.193Z,31.11
2023-05-04T05:27:23.688Z,30.74
2023-05-04T05:32:26.239Z,30.99
2023-05-04T05:37:28.806Z,30.03
2023-05-04T05:42:31.329Z,29.41
2023-05-04T05:47:33.942Z,29.48
2023-05-04T05:52:36.665Z,29.18
2023-05-04T05:57:39.146Z,28.53
2023-05-04T06:02:42.060Z,28.13
2023-05-04T06:07:44.398Z,28.01
2023-05-04T06:12:47.407Z,27.27
2023-05-04T06:17:50.132Z,25.77
2023-05-04T06:22:52.607Z,25.97
2023-05-04T06:27:55.026Z,26.24
2023-05-04T06:32:57.694Z,25.13
2023-05-04T06:38:00.235Z,24.73
2023-05-04T06:43:02.749Z,26.41
2023-05-04T06:48:05.549Z,25.05
2023-05-04T06:53:09.288Z,25.92
2023-05-04T06:58:12.232Z,25.40
2023-05-04T07:03:15.135Z,25.41
2023-05-04T07:08:18.149Z,25.52
2023-05-04T07:13:20.941Z,25.83
2023-05-04T07:18:23.386Z,25.96
2023-05-04T07:23:25.818Z,25.95
2023-05-04T07:28:28.408Z,24.90
2023-05-04T07:33:31.301Z,25.89
2023-05-04T07:38:34.234Z,26.18
2023-05-04T07:43:37.793Z,24.83
2023-05-04T07:48:41.609Z,25.03
2023-05-04T07:53:44.294Z,24.60
2023-05-04T07:58:47.889Z,23.72
2023-05-04T08:03:50.545Z,23.29
2023-05-04T08:08:53.158Z,23.60
2023-05-04T08:13:55.443Z,23.44
2023-05-04T08:18:57.944Z,23.75
2023-05-04T08:24:00.727Z,23.93
2023-05-04T08:29:13.526Z,23.43
2023-05-04T08:34:16.819Z,23.28
2023-05-04T08:39:19.666Z,23.62
2023-05-04T08:44:23.077Z,23.11
2023-05-04T08:49:27.206Z,23.03
2023-05-04T08:54:30.287Z,24.13
2023-05-04T08:59:33.641Z,23.29
2023-05-04T09:04:36.548Z,23.05
2023-05-04T09:09:39.097Z,23.17
2023-05-04T09:14:41.944Z,22.54
2023-05-04T09:19:45.118Z,22.67
2023-05-04T09:24:48.068Z,23.51
2023-05-04T09:29:54.492Z,22.98
2023-05-04T09:34:57.085Z,23.17
2023-05-04T09:40:01.007Z,23.86
2023-05-04T09:45:06.390Z,22.66
2023-05-04T09:50:20.893Z,24.05
2023-05-04T09:55:25.541Z,24.27
2023-05-04T10:00:28.801Z,23.61
2023-05-04T10:05:31.683Z,23.55
2023-05-04T10:10:36.300Z,22.98
2023-05-04T10:16:02.047Z,24.29
2023-05-04T10:21:26.753Z,24.40
2023-05-04T10:26:48.019Z,23.82
2023-05-04T10:31:51.477Z,24.52
2023-05-04T10:36:54.236Z,24.69
2023-05-04T10:42:00.687Z,25.44
2023-05-04T10:47:08.473Z,25.58
2023-05-04T10:52:16.551Z,25.95
2023-05-04T10:57:19.288Z,27.16
2023-05-04T11:02:30.323Z,27.37
2023-05-04T11:07:38.849Z,28.43
2023-05-04T11:12:43.840Z,29.47
2023-05-04T11:17:55.456Z,30.06
2023-05-04T11:22:58.992Z,30.60
2023-05-04T11:28:01.834Z,30.37
2023-05-04T11:33:14.587Z,31.97
2023-05-04T11:38:23.119Z,32.32
2023-05-04T11:43:25.998Z,31.54
2023-05-04T11:48:32.369Z,31.87
2023-05-04T11:53:39.576Z,31.63
2023-05-04T11:58:42.542Z,31.89
2023-05-04T12:03:53.754Z,31.01
2023-05-04T12:09:02.704Z,31.08
2023-05-04T12:14:07.258Z,31.66
2023-05-04T12:19:13.335Z,32.31
2023-05-04T12:24:16.267Z,32.14
2023-05-04T12:29:18.784Z,31.79
2023-05-04T12:34:21.448Z,32.07
2023-05-04T12:39:24.354Z,31.73
2023-05-04T12:44:27.054Z,32.45
2023-05-04T12:49:29.592Z,32.27
2023-05-04T12:54:32.133Z,33.20
2023-05-04T12:59:34.616Z,33.27
2023-05-04T13:04:37.188Z,32.88
2023-05-04T13:09:40.367Z,33.89
2023-05-04T13:14:42.838Z,34.74
2023-05-04T13:19:45.263Z,35.08
2023-05-04T13:24:47.658Z,35.57
2023-05-04T13:29:50.356Z,36.06
2023-05-04T13:34:52.986Z,36.39
2023-05-04T13:39:55.537Z,36.84
2023-05-04T13:44:58.320Z,36.99
2023-05-04T13:50:00.975Z,37.31
2023-05-04T13:55:04.183Z,37.06
2023-05-04T14:00:08.762Z,37.20
2023-05-04T14:05:14.355Z,36.89
2023-05-04T14:10:17.066Z,37.58
2023-05-04T14:15:23.020Z,37.24
2023-05-04T14:20:25.707Z,37.40
2023-05-04T14:25:28.300Z,37.33
2023-05-04T14:30:31.905Z,37.00
2023-05-04T14:35:37.650Z,37.67
2023-05-04T14:40:40.338Z,38.04
2023-05-04T14:45:43.117Z,38.03
2023-05-04T14:50:45.629Z,37.96
2023-05-04T14:55:48.674Z,38.31
2023-05-04T15:00:51.248Z,38.75
2023-05-04T15:05:53.654Z,39.00
2023-05-04T15:10:59.605Z,39.56
2023-05-04T15:16:02.328Z,39.77
2023-05-04T15:21:04.935Z,39.99
2023-05-04T15:26:07.408Z,40.47
2023-05-04T15:31:10.518Z,41.36
2023-05-04T15:36:13.031Z,41.84
2023-05-04T15:41:15.502Z,42.02
2023-05-04T15:46:17.953Z,41.31
2023-05-04T15:51:21.238Z,40.51
2023-05-04T15:56:23.881Z,39.86
2023-05-04T16:01:26.495Z,39.69
2023-05-04T16:06:29.364Z,39.57
2023-05-04T16:11:33.405Z,39.81
2023-05-04T16:16:35.951Z,40.20
2023-05-04T16:21:38.738Z,40.83
2023-05-04T16:26:41.404Z,41.41
2023-05-04T16:31:47.681Z,41.45
2023-05-04T16:36:50.141Z,41.25
2023-05-04T16:41:52.724Z,41.27
2023-05-04T16:46:55.409Z,41.28
2023-05-04T16:51:57.996Z,41.44
2023-05-04T16:57:00.627Z,42.22
2023-05-04T17:02:03.327Z,42.54
2023-05-04T17:07:06.467Z,42.80
2023-05-04T17:12:09.773Z,43.34
2023-05-04T17:17:12.208Z,43.74
2023-05-04T17:22:14.799Z,44.06
2023-05-04T17:27:17.324Z,44.63
2023-05-04T17:32:20.029Z,44.98
2023-05-04T17:37:22.611Z,45.16
2023-05-04T17:42:25.089Z,46.00
2023-05-04T17:47:27.590Z,46.91
2023-05-04T17:52:30.076Z,47.07
2023-05-04T17:57:32.720Z,47.49
2023-05-04T18:02:35.277Z,48.23
2023-05-04T18:07:38.013Z,48.72
2023-05-04T18:12:40.853Z,49.06
2023-05-04T18:17:43.731Z,50.63
2023-05-04T18:22:47.091Z,51.17
2023-05-04T18:27:49.772Z,51.32
2023-05-04T18:32:52.324Z,52.01
2023-05-04T18:37:54.867Z,52.11
2023-05-04T18:42:57.411Z,52.83
2023-05-04T18:47:59.982Z,53.88
2023-05-04T18:53:05.590Z,54.43
2023-05-04T18:58:08.170Z,55.01
2023-05-04T19:03:10.665Z,55.33
2023-05-04T19:08:13.226Z,55.59
2023-05-04T19:13:16.684Z,55.58
2023-05-04T19:18:19.375Z,56.05
2023-05-04T19:23:22.256Z,56.45
2023-05-04T19:28:24.821Z,56.31
2023-05-04T19:33:40.538Z,56.83
2023-05-04T19:38:50.155Z,57.74
2023-05-04T19:43:52.894Z,58.35
2023-05-04T19:48:55.426Z,58.94
2023-05-04T19:53:57.958Z,59.59
2023-05-04T19:59:00.822Z,60.02
2023-05-04T20:04:03.468Z,60.16
2023-05-04T20:09:05.934Z,60.30
2023-05-04T20:14:08.425Z,59.81
2023-05-04T20:19:10.999Z,60.48
2023-05-04T20:24:13.676Z,60.64
2023-05-04T20:29:16.845Z,60.59
2023-05-04T20:34:19.405Z,61.50
2023-05-04T20:39:21.965Z,61.93
2023-05-04T20:44:24.637Z,62.76
2023-05-04T20:49:27.163Z,63.01
2023-05-04T20:54:29.689Z,63.18
2023-05-04T20:59:32.223Z,63.79
2023-05-04T21:04:34.712Z,64.05
2023-05-04T21:09:37.305Z,64.49
2023-05-04T21:14:39.829Z,64.89
2023-05-04T21:19:42.532Z,64.88
2023-05-04T21:24:46.823Z,65.45
2023-05-04T21:29:49.214Z,65.75
2023-05-04T21:34:55.349Z,65.16
2023-05-04T21:39:57.833Z,65.53
2023-05-04T21:45:00.437Z,65.63
2023-05-04T21:50:04.194Z,66.20
2023-05-04T21:55:07.540Z,66.36
2023-05-04T22:00:18.108Z,67.01
2023-05-04T22:05:23.582Z,66.96
2023-05-04T22:10:26.083Z,67.03
2023-05-04T22:15:38.237Z,66.55
2023-05-04T22:20:48.998Z,67.46
2023-05-04T22:25:51.738Z,67.30
2023-05-04T22:30:54.142Z,68.10
2023-05-04T22:35:56.514Z,68.77
2023-05-04T22:40:58.895Z,68.61
2023-05-04T22:46:01.368Z,68.55
2023-05-04T22:51:03.905Z,69.02
2023-05-04T22:56:06.497Z,68.88
2023-05-04T23:01:13.394Z,68.67
2023-05-04T23:06:15.974Z,68.73
2023-05-04T23:11:22.248Z,68.83
2023-05-04T23:16:24.672Z,68.88
2023-05-04T23:21:27.679Z,69.20
2023-05-04T23:26:30.148Z,69.49
2023-05-04T23:31:32.617Z,69.22
2023-05-04T23:36:35.017Z,69.71
2023-05-04T23:41:37.476Z,69.57
2023-05-04T23:46:39.859Z,69.59
2023-05-04T23:51:42.253Z,69.18
2023-05-04T23:56:44.611Z,70.00
